Time;durP1;ratioP1;P1;durP2;ratioP2;P2;SDS_P1;SDS_P2;PMS_P1;PMS_P2;Temp;Humidity;BMP_temperature;BMP_pressure;BME280_temperature;BME280_humidity;BME280_pressure;Samples;Min_cycle;Max_cycle;Signal;HPM_P1;HPM_P2
2022/08/24 00:02:04;;;;;;;0.30;0.30;;;;;;;16.89;58.09;101220.38;5126616;28;20030;-69
2022/08/24 00:04:30;;;;;;;0.20;0.20;;;;;;;16.83;58.19;101229.25;5126582;28;20024;-69
2022/08/24 00:06:55;;;;;;;0.20;0.20;;;;;;;16.70;58.82;101220.78;5126405;28;20026;-69
2022/08/24 00:09:21;;;;;;;0.38;0.38;;;;;;;16.70;58.87;101226.88;5126203;28;20087;-69
2022/08/24 00:11:46;;;;;;;0.20;0.20;;;;;;;16.65;59.30;101228.75;5126360;28;20020;-68
2022/08/24 00:14:12;;;;;;;0.20;0.20;;;;;;;16.59;59.53;101232.38;5126455;28;20020;-68
2022/08/24 00:16:38;;;;;;;0.30;0.30;;;;;;;16.51;59.87;101226.41;5126164;28;20438;-69
2022/08/24 00:19:04;;;;;;;0.30;0.30;;;;;;;16.48;59.75;101231.72;5126376;28;20399;-69
2022/08/24 00:21:30;;;;;;;0.43;0.43;;;;;;;16.44;60.27;101230.03;5126024;28;20027;-69
2022/08/24 00:23:55;;;;;;;0.68;0.68;;;;;;;16.40;60.55;101233.63;5126232;28;20038;-69
2022/08/24 00:26:21;;;;;;;0.20;0.20;;;;;;;16.37;60.63;101229.31;5126195;28;20053;-67
2022/08/24 00:28:47;;;;;;;0.30;0.30;;;;;;;16.34;60.57;101229.38;5125966;28;20036;-69
2022/08/24 00:31:12;;;;;;;0.30;0.30;;;;;;;16.34;60.57;101230.22;5126119;28;20031;-69
2022/08/24 00:33:38;;;;;;;0.30;0.30;;;;;;;16.31;60.69;101229.44;5126217;28;20081;-69
2022/08/24 00:36:04;;;;;;;0.28;0.28;;;;;;;16.31;60.72;101227.66;5126250;28;20221;-68
2022/08/24 00:38:29;;;;;;;0.30;0.30;;;;;;;16.31;60.86;101230.28;5126158;28;20027;-70
2022/08/24 00:40:55;;;;;;;0.30;0.30;;;;;;;16.30;60.91;101225.94;5126020;28;20038;-68
2022/08/24 00:43:24;;;;;;;0.30;0.30;;;;;;;16.32;60.89;101225.91;5107702;28;20119;-68
2022/08/24 00:46:23;;;;;;;0.20;0.20;;;;;;;16.35;60.93;101229.34;5126110;28;20016;-70
2022/08/24 00:49:00;;;;;;;0.77;0.77;;;;;;;16.34;60.58;101222.34;5126102;28;20052;-67
2022/08/24 00:51:30;;;;;;;0.30;0.30;;;;;;;16.37;60.86;101228.44;5109260;28;20027;-68
2022/08/24 00:54:00;;;;;;;0.30;0.30;;;;;;;16.34;60.74;101224.97;5126006;28;20024;-68
2022/08/24 00:56:31;;;;;;;0.30;0.30;;;;;;;16.34;60.73;101227.59;5125745;28;20133;-66
2022/08/24 00:59:01;;;;;;;0.30;0.30;;;;;;;16.35;60.83;101226.72;5125884;28;20028;-68
2022/08/24 01:01:27;;;;;;;0.30;0.30;;;;;;;16.38;60.80;101224.91;5125857;28;20028;-68
2022/08/24 01:03:54;;;;;;;0.30;0.30;;;;;;;16.38;60.94;101227.53;5125845;28;20032;-67
2022/08/24 01:06:19;;;;;;;0.30;0.30;;;;;;;16.35;61.07;101213.63;5125847;28;20045;-67
2022/08/24 01:08:44;;;;;;;0.20;0.20;;;;;;;16.32;60.94;101216.31;5125805;28;20078;-67
2022/08/24 01:11:14;;;;;;;0.20;0.20;;;;;;;16.33;60.99;101210.16;5125897;28;20028;-68
2022/08/24 01:13:43;;;;;;;0.28;0.28;;;;;;;16.36;60.87;101224.94;5125718;28;20020;-68
2022/08/24 01:16:10;;;;;;;0.20;0.20;;;;;;;16.37;61.01;101223.19;5125679;28;20024;-67
2022/08/24 01:18:50;;;;;;;0.30;0.30;;;;;;;16.34;61.31;101218.88;5125503;28;20020;-68
2022/08/24 01:21:21;;;;;;;0.20;0.20;;;;;;;16.31;61.36;101219.78;5125739;28;20024;-67
2022/08/24 01:23:56;;;;;;;0.40;0.40;;;;;;;16.27;61.29;101223.38;5125825;28;20024;-68
2022/08/24 01:26:31;;;;;;;0.30;0.30;;;;;;;16.20;61.49;101222.63;5125604;28;20035;-67
2022/08/24 01:29:03;;;;;;;0.30;0.30;;;;;;;16.25;61.75;101230.41;5125540;28;20047;-69
2022/08/24 01:31:28;;;;;;;0.30;0.30;;;;;;;16.23;61.80;101233.03;5125776;28;20063;-67
2022/08/24 01:33:55;;;;;;;0.30;0.30;;;;;;;16.23;62.02;101237.41;5128715;28;20047;-67
2022/08/24 01:36:39;;;;;;;0.20;0.20;;;;;;;16.23;61.92;101245.25;5129574;28;20102;-69
2022/08/24 01:39:19;;;;;;;0.20;0.20;;;;;;;16.21;61.87;101244.47;5129279;28;20034;-68
2022/08/24 01:41:45;;;;;;;0.20;0.20;;;;;;;16.18;62.29;101242.72;5129384;28;20043;-67
2022/08/24 01:44:10;;;;;;;0.20;0.20;;;;;;;16.15;62.36;101244.56;5129463;28;20027;-68
2022/08/24 01:46:36;;;;;;;0.20;0.20;;;;;;;16.14;62.53;101253.31;5129144;28;20028;-68
2022/08/24 01:49:01;;;;;;;0.30;0.30;;;;;;;16.09;62.71;101245.53;5110526;28;20020;-68
2022/08/24 01:51:31;;;;;;;0.20;0.20;;;;;;;16.06;63.17;101254.31;5129070;28;20080;-68
2022/08/24 01:54:01;;;;;;;0.20;0.20;;;;;;;16.00;63.20;101248.31;5129236;28;20126;-68
2022/08/24 01:56:27;;;;;;;1.08;1.00;;;;;;;16.01;63.40;101243.06;5129171;28;20019;-67
2022/08/24 01:58:53;;;;;;;0.20;0.20;;;;;;;15.98;63.67;101250.97;5128911;28;20399;-69
2022/08/24 02:01:19;;;;;;;0.20;0.20;;;;;;;16.01;63.78;101250.91;5128911;28;20030;-69
2022/08/24 02:03:45;;;;;;;0.30;0.30;;;;;;;15.98;63.86;101253.59;5129088;28;20031;-69
2022/08/24 02:06:11;;;;;;;0.30;0.30;;;;;;;15.97;63.94;101249.22;5129022;28;20090;-68
2022/08/24 02:08:36;;;;;;;0.30;0.30;;;;;;;15.98;64.02;101238.75;5128963;28;20030;-69
2022/08/24 02:11:05;;;;;;;0.30;0.30;;;;;;;15.98;64.12;101243.09;5128763;28;20114;-68
2022/08/24 02:13:31;;;;;;;0.28;0.28;;;;;;;15.92;64.17;101243.19;5128706;28;20015;-68
2022/08/24 02:15:57;;;;;;;0.30;0.30;;;;;;;15.91;64.11;101246.72;5128871;28;20410;-68
2022/08/24 02:18:23;;;;;;;0.30;0.30;;;;;;;15.87;64.29;101240.66;5128541;28;20024;-68
2022/08/24 02:20:49;;;;;;;0.30;0.30;;;;;;;15.84;64.32;101246.81;5128696;28;20030;-68
2022/08/24 02:23:14;;;;;;;0.30;0.30;;;;;;;15.82;64.54;101243.34;5110112;28;20036;-69
2022/08/24 02:25:40;;;;;;;3.40;2.05;;;;;;;15.82;64.72;101240.72;5128534;28;20015;-68
2022/08/24 02:28:05;;;;;;;0.30;0.30;;;;;;;15.79;64.87;101238.16;5128130;28;20067;-70
2022/08/24 02:30:31;;;;;;;0.20;0.20;;;;;;;15.80;65.31;101247.72;5128398;28;20092;-69
2022/08/24 02:32:57;;;;;;;0.30;0.30;;;;;;;15.76;65.38;101235.59;5128297;28;20021;-68
2022/08/24 02:35:23;;;;;;;0.30;0.30;;;;;;;15.77;65.73;101239.09;5128395;28;20049;-68
2022/08/24 02:37:49;;;;;;;0.25;0.25;;;;;;;15.79;65.65;101248.63;5128253;28;20023;-69
2022/08/24 02:40:14;;;;;;;0.30;0.30;;;;;;;15.76;65.83;101243.44;5128106;28;20089;-68
2022/08/24 02:42:40;;;;;;;0.30;0.30;;;;;;;15.76;66.13;101256.53;5128065;28;20047;-68
2022/08/24 02:45:07;;;;;;;0.30;0.30;;;;;;;15.72;66.09;101252.22;5127944;28;20027;-69
2022/08/24 02:47:34;;;;;;;0.30;0.30;;;;;;;15.68;66.13;101258.41;5109716;28;20076;-69
2022/08/24 02:50:01;;;;;;;0.30;0.30;;;;;;;15.69;66.32;101258.38;5127917;28;20020;-68
2022/08/24 02:52:26;;;;;;;0.75;0.75;;;;;;;15.65;66.49;101254.09;5127842;28;20035;-69
2022/08/24 02:54:51;;;;;;;0.50;0.50;;;;;;;15.61;66.68;101255.03;5127918;28;20027;-68
2022/08/24 02:57:17;;;;;;;0.30;0.30;;;;;;;15.61;66.83;101252.41;5127602;28;20032;-68
2022/08/24 02:59:42;;;;;;;0.30;0.30;;;;;;;15.58;67.27;101261.19;5109449;28;20036;-69
2022/08/24 03:02:07;;;;;;;0.20;0.20;;;;;;;15.57;67.06;101262.09;5127779;28;20023;-68
2022/08/24 03:04:33;;;;;;;0.20;0.20;;;;;;;15.57;67.51;101259.47;5127766;28;20023;-69
2022/08/24 03:06:59;;;;;;;0.30;0.30;;;;;;;15.55;67.71;101257.75;5127736;28;20471;-69
2022/08/24 03:09:24;;;;;;;0.30;0.30;;;;;;;15.53;67.72;101268.22;5127511;28;20024;-69
2022/08/24 03:11:49;;;;;;;0.22;0.22;;;;;;;15.52;67.80;101266.50;5127322;28;20039;-68
2022/08/24 03:14:17;;;;;;;0.30;0.30;;;;;;;15.52;67.66;101273.50;5127447;28;20023;-69
2022/08/24 03:16:42;;;;;;;0.22;0.22;;;;;;;15.48;68.05;101264.81;5127422;28;20027;-68
2022/08/24 03:19:08;;;;;;;0.30;0.30;;;;;;;15.48;68.14;101270.06;5127130;28;20053;-69
2022/08/24 03:21:33;;;;;;;0.50;0.50;;;;;;;15.44;68.22;101269.25;5127285;28;20113;-69
2022/08/24 03:23:58;;;;;;;0.20;0.20;;;;;;;15.42;68.22;101268.41;5127173;28;20028;-68
2022/08/24 03:26:24;;;;;;;0.40;0.40;;;;;;;15.38;68.37;101274.59;5127177;28;20027;-68
2022/08/24 03:28:49;;;;;;;0.30;0.30;;;;;;;15.35;68.68;101277.25;5108589;28;20050;-68
2022/08/24 03:31:16;;;;;;;0.30;0.30;;;;;;;15.31;68.74;101283.38;5127004;28;20020;-68
2022/08/24 03:33:41;;;;;;;0.20;0.20;;;;;;;15.28;68.92;101275.59;5127159;28;20039;-68
2022/08/24 03:36:07;;;;;;;0.20;0.20;;;;;;;15.27;69.12;101284.31;5127334;28;20030;-69
2022/08/24 03:38:34;;;;;;;0.30;0.30;;;;;;;15.23;69.28;101281.75;5127025;28;20044;-69
2022/08/24 03:41:00;;;;;;;0.30;0.30;;;;;;;15.21;69.40;101280.91;5127172;28;20041;-68
2022/08/24 03:46:11;;;;;;;0.30;0.30;;;;;;;15.16;69.66;101281.88;5127288;28;20034;-70
2022/08/24 03:48:38;;;;;;;0.30;0.30;;;;;;;15.15;69.97;101283.59;5126916;28;20455;-69
2022/08/24 03:51:05;;;;;;;0.30;0.30;;;;;;;15.14;69.96;101281.00;5126963;28;20103;-69
2022/08/24 03:53:30;;;;;;;0.30;0.30;;;;;;;15.10;69.96;101278.44;5126921;28;20038;-69
2022/08/24 03:55:56;;;;;;;0.20;0.20;;;;;;;15.02;70.19;101267.22;5126383;28;20381;-69
2022/08/24 03:58:21;;;;;;;0.30;0.30;;;;;;;15.05;70.50;101276.78;5108422;28;20020;-68
2022/08/24 04:00:46;;;;;;;0.30;0.30;;;;;;;15.01;70.62;101275.94;5126996;28;20019;-69
2022/08/24 04:03:12;;;;;;;0.30;0.30;;;;;;;14.99;70.80;101278.59;5126794;28;20051;-69
2022/08/24 04:05:41;;;;;;;0.65;0.65;;;;;;;15.00;70.91;101279.44;5126824;28;20474;-68
2022/08/24 04:08:07;;;;;;;0.30;0.30;;;;;;;14.97;70.74;101280.34;5126540;28;20035;-70
2022/08/24 04:10:33;;;;;;;0.30;0.30;;;;;;;14.98;70.82;101276.84;5126602;28;20035;-68
2022/08/24 04:13:00;;;;;;;0.30;0.30;;;;;;;14.95;70.97;101276.03;5126417;28;20023;-68
2022/08/24 04:15:30;;;;;;;0.30;0.30;;;;;;;14.98;71.05;101276.00;5126499;28;20019;-69
2022/08/24 04:17:56;;;;;;;0.30;0.30;;;;;;;15.00;71.23;101295.13;5126713;28;20069;-69
2022/08/24 04:20:22;;;;;;;0.30;0.30;;;;;;;15.03;71.19;101292.47;5108009;28;20031;-69
2022/08/24 04:22:50;;;;;;;0.30;0.30;;;;;;;15.04;71.13;101295.94;5126368;28;20026;-69
2022/08/24 04:25:16;;;;;;;0.30;0.30;;;;;;;15.09;71.05;101294.16;5126433;28;20062;-68
2022/08/24 04:27:41;;;;;;;0.28;0.28;;;;;;;15.15;71.20;101301.03;5126200;28;20048;-68
2022/08/24 04:30:07;;;;;;;0.30;0.30;;;;;;;15.17;71.10;101302.75;5126435;28;20045;-69
2022/08/24 04:32:34;;;;;;;0.30;0.30;;;;;;;15.21;70.89;101308.81;5126287;28;20126;-68
2022/08/24 04:34:59;;;;;;;0.30;0.30;;;;;;;15.22;71.13;101303.53;5126304;28;20071;-69
2022/08/24 04:37:24;;;;;;;0.30;0.30;;;;;;;15.23;70.78;101313.16;5126265;28;20027;-69
2022/08/24 04:39:50;;;;;;;0.30;0.30;;;;;;;15.27;70.87;101310.47;5126046;28;20020;-69
2022/08/24 04:42:16;;;;;;;0.30;0.30;;;;;;;15.32;70.87;101301.69;5126030;28;20049;-69
2022/08/24 04:44:42;;;;;;;0.30;0.30;;;;;;;15.45;70.93;101307.59;5126253;28;20031;-68
2022/08/24 04:47:07;;;;;;;0.30;0.30;;;;;;;15.67;70.82;101302.03;5126142;28;20053;-69
2022/08/24 04:49:32;;;;;;;0.30;0.30;;;;;;;15.88;70.32;101301.75;5126267;28;20519;-68
2022/08/24 04:51:58;;;;;;;0.20;0.20;;;;;;;16.14;70.09;101303.94;5126263;28;20099;-68
2022/08/24 04:54:24;;;;;;;0.30;0.30;;;;;;;16.42;69.85;101303.44;5126213;28;20039;-68
2022/08/24 04:56:49;;;;;;;0.25;0.25;;;;;;;16.74;68.84;101298.50;5126035;28;20015;-70
2022/08/24 04:59:15;;;;;;;0.30;0.30;;;;;;;17.05;68.25;101305.72;5126108;28;20026;-69
2022/08/24 05:01:41;;;;;;;0.28;0.28;;;;;;;17.30;67.33;101297.31;5126005;28;20087;-68
2022/08/24 05:04:07;;;;;;;0.30;0.30;;;;;;;17.58;66.41;101294.09;5125999;28;20416;-67
2022/08/24 05:06:33;;;;;;;0.20;0.20;;;;;;;17.88;65.78;101303.00;5125890;28;20031;-65
2022/08/24 05:08:59;;;;;;;0.30;0.30;;;;;;;18.11;64.68;101296.31;5129230;28;20073;-65
2022/08/24 05:11:25;;;;;;;0.30;0.30;;;;;;;18.30;63.89;101294.97;5129860;28;20046;-65
2022/08/24 05:13:52;;;;;;;0.20;0.20;;;;;;;18.56;63.83;101306.50;5129940;28;20081;-64
2022/08/24 05:16:18;;;;;;;0.20;0.20;;;;;;;18.92;64.05;101296.75;5129820;28;20023;-65
2022/08/24 05:18:44;;;;;;;0.20;0.20;;;;;;;19.42;63.79;101297.94;5129603;28;20031;-71
2022/08/24 05:21:13;;;;;;;0.20;0.20;;;;;;;19.91;62.56;101305.16;5129807;28;20023;-65
2022/08/24 05:23:39;;;;;;;0.20;0.20;;;;;;;20.36;61.18;101308.94;5129695;28;20039;-66
2022/08/24 05:26:09;;;;;;;0.20;0.20;;;;;;;20.37;58.82;101312.41;5129701;28;20027;-67
2022/08/24 05:28:35;;;;;;;0.20;0.20;;;;;;;20.22;58.71;101304.16;5129375;28;20065;-64
2022/08/24 05:31:20;;;;;;;0.30;0.30;;;;;;;20.40;60.06;101313.16;5111557;28;20038;-66
2022/08/24 05:33:47;;;;;;;0.50;0.50;;;;;;;20.63;58.83;101313.25;5129824;28;20035;-67
2022/08/24 05:36:24;;;;;;;0.30;0.30;;;;;;;20.78;58.72;101312.69;5129555;28;20046;-67
2022/08/24 05:38:53;;;;;;;0.20;0.20;;;;;;;21.04;57.45;101313.53;5129384;28;20045;-66
2022/08/24 05:41:19;;;;;;;0.20;0.20;;;;;;;20.97;55.29;101322.59;5094370;28;20126;-66
2022/08/24 05:43:44;;;;;;;0.20;0.20;;;;;;;20.73;54.99;101319.94;5129035;28;20019;-66
2022/08/24 05:46:10;;;;;;;0.20;0.20;;;;;;;20.60;56.41;101326.56;5129402;28;20087;-67
2022/08/24 05:48:37;;;;;;;0.28;0.28;;;;;;;20.74;55.25;101326.03;5129254;28;20098;-66
2022/08/24 05:51:04;;;;;;;0.20;0.20;;;;;;;20.71;54.94;101327.03;5129305;28;20033;-67
2022/08/24 05:53:30;;;;;;;0.20;0.20;;;;;;;20.67;54.75;101325.44;5129271;28;20062;-67
2022/08/24 05:55:55;;;;;;;0.28;0.28;;;;;;;20.75;54.76;101335.72;5129399;28;20036;-66
2022/08/24 05:58:21;;;;;;;0.20;0.20;;;;;;;20.76;54.12;101322.44;5110509;28;20019;-66
2022/08/24 06:00:48;;;;;;;0.20;0.20;;;;;;;20.74;54.41;101324.28;5129230;28;20044;-67
2022/08/24 06:03:15;;;;;;;0.28;0.28;;;;;;;20.89;54.59;101324.63;5129330;28;20023;-67
2022/08/24 06:05:42;;;;;;;0.30;0.30;;;;;;;20.99;53.70;101315.47;5129176;28;20039;-66
2022/08/24 06:08:08;;;;;;;0.20;0.20;;;;;;;21.04;53.43;101325.84;5110507;28;20039;-66
2022/08/24 06:10:42;;;;;;;0.45;0.45;;;;;;;21.20;53.86;101331.41;5128683;28;20028;-66
2022/08/24 06:13:09;;;;;;;0.20;0.20;;;;;;;21.37;52.82;101319.34;5128733;28;20027;-65
2022/08/24 06:15:35;;;;;;;0.20;0.20;;;;;;;21.49;52.56;101325.91;5128808;28;20438;-66
2022/08/24 06:18:01;;;;;;;0.20;0.20;;;;;;;21.57;52.30;101329.09;5128424;28;20065;-65
2022/08/24 06:20:27;;;;;;;0.20;0.20;;;;;;;21.63;51.40;101325.38;5128654;28;20076;-66
2022/08/24 06:22:52;;;;;;;0.85;0.85;;;;;;;21.59;51.59;101334.31;5128762;28;20023;-66
2022/08/24 06:28:02;;;;;;;0.10;0.10;;;;;;;21.70;51.93;101331.22;5128393;28;20200;-66
2022/08/24 06:30:27;;;;;;;0.52;0.52;;;;;;;21.86;50.79;101334.13;5128719;28;20467;-66
2022/08/24 06:32:53;;;;;;;0.20;0.20;;;;;;;21.80;50.46;101327.34;5128678;28;20049;-66
2022/08/24 06:35:18;;;;;;;0.20;0.20;;;;;;;21.80;50.89;101337.91;5128665;28;20050;-66
2022/08/24 06:37:44;;;;;;;0.20;0.20;;;;;;;21.77;50.61;101338.03;5128314;28;20026;-66
2022/08/24 06:40:10;;;;;;;3.05;2.42;;;;;;;21.89;51.05;101336.66;5128348;28;20020;-66
2022/08/24 06:42:36;;;;;;;0.10;0.10;;;;;;;22.05;50.09;101336.88;5128158;28;20034;-66
2022/08/24 06:45:02;;;;;;;0.20;0.20;;;;;;;22.28;49.97;101343.81;5109828;28;20026;-66
2022/08/24 06:47:27;;;;;;;0.20;0.20;;;;;;;22.56;49.81;101340.91;5128501;28;20028;-66
2022/08/24 06:49:53;;;;;;;0.20;0.20;;;;;;;22.87;48.53;101339.56;5128163;28;20019;-66
2022/08/24 06:52:18;;;;;;;0.20;0.20;;;;;;;22.84;48.85;101339.69;5128288;28;20487;-66
2022/08/24 06:54:43;;;;;;;0.20;0.20;;;;;;;23.26;48.08;101349.22;5128217;28;20024;-66
2022/08/24 06:57:09;;;;;;;0.20;0.20;;;;;;;23.38;47.26;101345.19;5127994;28;20061;-66
2022/08/24 06:59:34;;;;;;;0.30;0.30;;;;;;;23.62;48.62;101349.34;5128104;28;20049;-66
2022/08/24 07:02:00;;;;;;;0.25;0.25;;;;;;;23.89;46.76;101344.47;5128087;28;20023;-66
2022/08/24 07:04:26;;;;;;;1.63;0.88;;;;;;;23.93;46.59;101345.16;5128005;28;20089;-66
2022/08/24 07:06:53;;;;;;;0.17;0.17;;;;;;;23.87;46.04;101350.78;5127842;28;20510;-66
2022/08/24 07:09:19;;;;;;;0.20;0.20;;;;;;;23.86;46.38;101343.78;5127972;28;20028;-66
2022/08/24 07:11:44;;;;;;;0.10;0.10;;;;;;;23.93;46.85;101346.97;5127738;28;20046;-67
2022/08/24 07:14:10;;;;;;;0.20;0.20;;;;;;;24.49;45.99;101357.41;5109385;28;20034;-67
2022/08/24 07:16:35;;;;;;;0.10;0.10;;;;;;;24.57;45.32;101349.91;5127692;28;20019;-66
2022/08/24 07:19:03;;;;;;;0.28;0.28;;;;;;;24.52;44.28;101351.97;5127502;28;20462;-66
2022/08/24 07:21:29;;;;;;;0.17;0.17;;;;;;;24.42;43.40;101362.22;5127648;28;20020;-66
2022/08/24 07:23:57;;;;;;;0.20;0.20;;;;;;;24.42;44.68;101351.59;5127396;28;20032;-66
2022/08/24 07:26:26;;;;;;;0.10;0.10;;;;;;;24.74;45.30;101361.44;5109206;28;20023;-67
2022/08/24 07:28:54;;;;;;;0.20;0.20;;;;;;;25.09;44.18;101350.75;5127285;28;20043;-66
2022/08/24 07:31:20;;;;;;;0.20;0.20;;;;;;;25.41;43.69;101368.47;5108253;28;20058;-67
2022/08/24 07:33:46;;;;;;;0.40;0.40;;;;;;;25.61;42.64;101363.81;5108970;28;20020;-66
2022/08/24 07:36:13;;;;;;;0.10;0.10;;;;;;;25.80;42.46;101370.78;5127479;28;20068;-67
2022/08/24 07:38:39;;;;;;;0.20;0.20;;;;;;;25.95;41.52;101369.88;5127160;28;20083;-67
2022/08/24 07:41:04;;;;;;;0.10;0.10;;;;;;;25.83;40.93;101373.25;5127062;28;20031;-67
2022/08/24 07:43:30;;;;;;;5.68;1.80;;;;;;;25.74;41.04;101370.19;5127003;28;20114;-66
2022/08/24 07:45:55;;;;;;;0.10;0.10;;;;;;;25.91;41.56;101378.97;5127175;28;20113;-67
2022/08/24 07:48:20;;;;;;;8.77;1.65;;;;;;;26.27;41.49;101381.34;5127095;28;20493;-66
2022/08/24 07:50:46;;;;;;;0.10;0.10;;;;;;;26.56;40.65;101387.63;5127217;28;20023;-66
2022/08/24 07:53:11;;;;;;;0.50;0.50;;;;;;;26.65;39.45;101383.53;5127028;28;20035;-66
2022/08/24 07:55:37;;;;;;;0.10;0.10;;;;;;;26.60;38.41;101374.97;5127074;28;20016;-67
2022/08/24 07:58:02;;;;;;;0.20;0.20;;;;;;;26.38;38.61;101376.28;5108693;28;20483;-68
2022/08/24 08:00:28;;;;;;;0.13;0.13;;;;;;;26.28;39.77;101383.09;5126926;28;20027;-67
2022/08/24 08:02:54;;;;;;;0.20;0.20;;;;;;;26.52;40.29;101380.75;5126844;28;20031;-67
2022/08/24 08:05:21;;;;;;;0.40;0.40;;;;;;;26.93;38.50;101384.50;5126906;28;20088;-67
2022/08/24 08:07:48;;;;;;;0.22;0.22;;;;;;;26.95;38.71;101379.06;5126676;28;20050;-66
2022/08/24 08:10:14;;;;;;;0.13;0.13;;;;;;;27.18;37.11;101380.28;5126731;28;20023;-66
2022/08/24 08:12:40;;;;;;;0.10;0.10;;;;;;;26.84;36.91;101388.56;5126541;28;20037;-66
2022/08/24 08:15:08;;;;;;;0.20;0.20;;;;;;;26.92;37.40;101382.75;5126770;28;20024;-66
2022/08/24 08:17:34;;;;;;;0.15;0.15;;;;;;;27.25;37.50;101391.44;5126637;28;20023;-66
2022/08/24 08:19:59;;;;;;;0.10;0.10;;;;;;;27.50;37.53;101388.97;5126625;28;20107;-67
2022/08/24 08:25:08;;;;;;;0.10;0.10;;;;;;;27.72;36.32;101393.78;5126624;28;20034;-67
2022/08/24 08:27:35;;;;;;;0.10;0.10;;;;;;;28.28;36.29;101397.19;5126303;28;20019;-67
2022/08/24 08:30:01;;;;;;;0.10;0.10;;;;;;;28.83;36.77;101405.88;5126168;28;20020;-67
2022/08/24 08:32:26;;;;;;;0.10;0.10;;;;;;;29.09;34.44;101391.66;5126436;28;20047;-66
2022/08/24 08:34:52;;;;;;;0.10;0.10;;;;;;;29.02;33.72;101406.44;5126458;28;20032;-66
2022/08/24 08:37:18;;;;;;;0.10;0.10;;;;;;;28.80;33.85;101407.94;5126298;28;20015;-66
2022/08/24 08:39:43;;;;;;;0.10;0.10;;;;;;;28.77;33.61;101408.16;5126207;28;20077;-66
2022/08/24 08:42:29;;;;;;;0.85;0.85;;;;;;;28.69;32.90;101414.03;5129696;28;20026;-66
2022/08/24 08:45:23;;;;;;;0.35;0.35;;;;;;;28.61;33.65;101408.38;5133241;28;20015;-66
2022/08/24 08:48:31;;;;;;;0.10;0.10;;;;;;;28.63;32.43;101412.63;5133090;28;20030;-66
2022/08/24 08:51:23;;;;;;;0.10;0.10;;;;;;;28.54;33.15;101410.63;5133039;28;20459;-66
2022/08/24 08:54:10;;;;;;;0.10;0.10;;;;;;;28.55;33.23;101417.66;5133285;28;20402;-66
2022/08/24 08:56:43;;;;;;;0.10;0.10;;;;;;;28.54;32.15;101414.16;5133160;28;20083;-66
2022/08/24 08:59:22;;;;;;;1.17;0.85;;;;;;;28.18;31.80;101423.69;5133112;28;20069;-66
2022/08/24 09:02:06;;;;;;;0.10;0.10;;;;;;;27.80;32.82;101420.81;5133186;28;20463;-67
2022/08/24 09:05:26;;;;;;;0.10;0.10;;;;;;;28.07;33.37;101424.38;5133285;28;20057;-66
2022/08/24 09:08:18;;;;;;;0.10;0.10;;;;;;;28.63;33.05;101431.34;5133068;28;20023;-66
2022/08/24 09:11:05;;;;;;;;;;;;;;;29.19;31.61;101421.25;5133434;28;20047;-66
2022/08/24 09:13:52;;;;;;;0.10;0.10;;;;;;;29.27;31.19;101416.22;5132932;28;19907;-65
2022/08/24 09:16:24;;;;;;;0.15;0.15;;;;;;;29.07;30.83;101417.66;5114589;28;20034;-66
2022/08/24 09:18:50;;;;;;;0.20;0.20;;;;;;;29.03;30.59;101417.03;5132774;28;20130;-66
2022/08/24 09:21:46;;;;;;;0.10;0.10;;;;;;;28.96;31.75;101415.75;5132954;28;20438;-66
2022/08/24 09:24:27;;;;;;;0.10;0.10;;;;;;;29.53;31.69;101417.94;5114558;28;20100;-66
2022/08/24 09:26:55;;;;;;;0.40;0.40;;;;;;;29.91;31.31;101416.94;5133025;28;20082;-67
2022/08/24 09:29:38;;;;;;;0.90;0.90;;;;;;;30.21;30.69;101411.22;5132703;28;20043;-66
2022/08/24 09:32:09;;;;;;;0.10;0.10;;;;;;;30.28;30.33;101412.44;5132662;28;20073;-66
2022/08/24 09:35:16;;;;;;;0.10;0.10;;;;;;;30.60;30.55;101411.78;5132908;28;20024;-66
2022/08/24 09:38:17;;;;;;;0.20;0.20;;;;;;;30.79;29.80;101410.34;5049672;28;20034;-67
2022/08/24 09:40:54;;;;;;;0.10;0.10;;;;;;;30.60;28.77;101416.28;5026969;28;20053;-67
2022/08/24 09:43:27;;;;;;;0.10;0.10;;;;;;;30.23;28.71;101403.91;5049537;28;20037;-67
2022/08/24 09:46:10;;;;;;;0.10;0.10;;;;;;;30.22;29.54;101404.91;5134859;22;20056;-73
2022/08/24 09:49:13;;;;;;;0.10;0.10;;;;;;;30.39;28.47;101407.13;5131157;28;20094;-72
2022/08/24 09:51:56;;;;;;;0.10;0.10;;;;;;;29.74;28.51;101395.94;5131924;28;20045;-73
2022/08/24 09:54:28;;;;;;;0.10;0.10;;;;;;;29.51;29.47;101395.78;5128944;28;20024;-73
2022/08/24 09:57:02;;;;;;;0.10;0.10;;;;;;;29.50;29.16;101396.78;5129322;28;20034;-73
2022/08/24 09:59:46;;;;;;;0.10;0.10;;;;;;;29.17;29.75;101391.13;5129168;28;20030;-72
2022/08/24 10:02:49;;;;;;;0.77;0.73;;;;;;;29.55;30.27;101390.09;5129033;28;20023;-71
2022/08/24 10:05:33;;;;;;;0.10;0.10;;;;;;;30.25;29.53;101392.13;5128976;28;20072;-71
2022/08/24 10:08:17;;;;;;;0.10;0.10;;;;;;;30.87;29.84;101391.84;5128988;28;20023;-73
2022/08/24 10:10:45;;;;;;;0.10;0.10;;;;;;;31.64;27.95;101383.88;5128990;28;20190;-72
2022/08/24 10:13:29;;;;;;;0.10;0.10;;;;;;;31.24;27.48;101387.16;5128735;28;20039;-72
2022/08/24 10:16:25;;;;;;;0.10;0.10;;;;;;;30.95;28.61;101393.91;5128715;28;20019;-73
2022/08/24 10:19:26;;;;;;;0.10;0.10;;;;;;;31.30;27.92;101383.97;5128665;28;20047;-73
2022/08/24 10:22:09;;;;;;;0.10;0.10;;;;;;;31.15;27.98;101396.81;5087001;28;20107;-73
2022/08/24 10:24:57;;;;;;;0.10;0.10;;;;;;;30.81;27.64;101392.31;5128520;28;20425;-72
2022/08/24 10:27:49;;;;;;;0.15;0.15;;;;;;;30.33;27.23;101396.03;5115621;28;20046;-72
2022/08/24 10:30:17;;;;;;;;;;;;;;;29.71;28.13;101391.69;5045955;28;20033;-73
2022/08/24 10:32:51;;;;;;;0.10;0.10;;;;;;;29.49;29.16;101387.06;5045377;28;19916;-72
2022/08/24 10:35:26;;;;;;;0.10;0.10;;;;;;;29.80;28.49;101385.66;5028676;28;20060;-73
2022/08/24 10:42:06;;;;;;;0.10;0.10;;;;;;;29.98;29.08;101379.88;4986402;28;20176;-73
2022/08/24 10:44:42;;;;;;;0.10;0.10;;;;;;;30.38;29.01;101386.69;4947495;29;20155;-73
2022/08/24 10:47:21;;;;;;;0.10;0.10;;;;;;;30.51;28.39;101391.91;4947835;29;20103;-72
2022/08/24 10:50:08;;;;;;;0.10;0.10;;;;;;;30.26;27.72;101387.59;4947723;29;20044;-73
2022/08/24 10:52:42;;;;;;;0.20;0.20;;;;;;;29.82;28.82;101390.88;4947575;29;20432;-73
2022/08/24 10:55:25;;;;;;;0.22;0.22;;;;;;;29.87;29.14;101396.75;4947807;29;20135;-73
2022/08/24 10:58:09;;;;;;;0.10;0.10;;;;;;;30.21;29.23;101396.00;4947589;29;20040;-73
2022/08/24 11:00:35;;;;;;;0.10;0.10;;;;;;;30.48;28.92;101391.31;4947577;29;20032;-73
2022/08/24 11:03:11;;;;;;;0.20;0.20;;;;;;;30.43;29.17;101392.50;4947568;29;20032;-74
2022/08/24 11:05:42;;;;;;;0.25;0.25;;;;;;;30.35;29.07;101391.41;4946364;29;20039;-73
2022/08/24 11:08:07;;;;;;;0.10;0.10;;;;;;;30.37;29.06;101382.28;4947996;29;20031;-73
2022/08/24 11:10:36;;;;;;;0.73;0.73;;;;;;;30.66;29.04;101376.47;4966402;29;20597;-73
2022/08/24 11:13:25;;;;;;;0.10;0.10;;;;;;;30.85;27.68;101376.88;4966190;29;20111;-73
2022/08/24 11:16:01;;;;;;;0.10;0.10;;;;;;;30.65;28.28;101376.59;5030306;28;20037;-73
2022/08/24 11:18:54;;;;;;;0.10;0.10;;;;;;;31.04;28.10;101368.16;5076551;28;20057;-74
2022/08/24 11:21:43;;;;;;;0.10;0.10;;;;;;;31.01;27.55;101379.13;5124122;28;20039;-74
2022/08/24 11:24:17;;;;;;;0.80;0.73;;;;;;;30.80;28.00;101375.38;5127339;28;20019;-73
2022/08/24 11:26:59;;;;;;;0.10;0.10;;;;;;;31.22;28.07;101383.72;5127444;28;20031;-73
2022/08/24 11:29:53;;;;;;;0.10;0.10;;;;;;;31.19;28.70;101365.19;5127294;28;20090;-73
2022/08/24 11:32:40;;;;;;;0.10;0.10;;;;;;;29.87;29.23;101371.78;5117997;28;20027;-73
2022/08/24 11:35:08;;;;;;;2.05;1.85;;;;;;;28.88;30.14;101375.31;5127072;28;20463;-74
2022/08/24 11:37:37;;;;;;;0.10;0.10;;;;;;;28.12;31.47;101366.22;5127254;28;20059;-73
2022/08/24 11:40:05;;;;;;;0.10;0.10;;;;;;;27.57;32.05;101374.28;5127081;28;20081;-73
2022/08/24 11:42:40;;;;;;;0.10;0.10;;;;;;;27.02;32.89;101374.22;5126911;28;20058;-73
2022/08/24 11:45:12;;;;;;;0.17;0.17;;;;;;;26.58;33.35;101379.53;5126669;28;20040;-73
2022/08/24 11:47:51;;;;;;;0.10;0.10;;;;;;;26.24;33.53;101369.97;5127077;28;20027;-73
2022/08/24 11:50:39;;;;;;;1.08;0.73;;;;;;;26.08;34.23;101375.34;5126836;28;20379;-73
2022/08/24 11:53:19;;;;;;;0.10;0.10;;;;;;;25.77;34.44;101371.78;5126820;28;20077;-73
2022/08/24 11:56:13;;;;;;;0.20;0.20;;;;;;;25.62;34.89;101368.25;5127099;28;20359;-73